Time;durP1;ratioP1;P1;durP2;ratioP2;P2;SDS_P1;SDS_P2;PMS_P1;PMS_P2;Temp;Humidity;BMP_temperature;BMP_pressure;BME280_temperature;BME280_humidity;BME280_pressure;Samples;Min_cycle;Max_cycle;Signal;HPM_P1;HPM_P2
2021/07/13 00:00:30;;;;;;;4.13;3.47;;;27.50;56.40;;;;;;4948927;28;21103;-52
2021/07/13 00:02:57;;;;;;;4.07;3.77;;;27.60;56.30;;;;;;4948287;28;20232;-49
2021/07/13 00:05:24;;;;;;;3.60;3.27;;;27.60;56.50;;;;;;4952709;28;20447;-49
2021/07/13 00:07:50;;;;;;;6.33;3.33;;;27.60;56.60;;;;;;4954934;28;20983;-50
2021/07/13 00:10:22;;;;;;;3.20;2.90;;;27.40;57.10;;;;;;4950507;28;20864;-47
2021/07/13 00:12:49;;;;;;;5.00;3.60;;;27.10;57.60;;;;;;4951423;28;20447;-52
2021/07/13 00:15:27;;;;;;;3.70;3.40;;;26.90;58.20;;;;;;4949662;28;20443;-52
2021/07/13 00:17:55;;;;;;;6.00;2.80;;;26.70;58.70;;;;;;4951541;28;21025;-52
2021/07/13 00:20:22;;;;;;;4.00;3.10;;;26.50;59.00;;;;;;4947106;28;20474;-47
2021/07/13 00:22:48;;;;;;;3.67;3.30;;;26.50;59.10;;;;;;4953742;28;20534;-50
2021/07/13 00:25:17;;;;;;;5.30;3.50;;;26.50;59.10;;;;;;4953106;28;20579;-51
2021/07/13 00:27:43;;;;;;;3.60;3.20;;;26.40;59.10;;;;;;4949267;28;20529;-50
2021/07/13 00:30:12;;;;;;;2.87;2.67;;;26.30;59.30;;;;;;4943398;28;20443;-48
2021/07/13 00:32:38;;;;;;;3.57;3.20;;;26.20;59.50;;;;;;4952056;28;20802;-47
2021/07/13 00:35:04;;;;;;;3.93;3.50;;;26.20;59.40;;;;;;4951585;28;20464;-52
2021/07/13 00:37:30;;;;;;;3.20;2.87;;;26.30;59.20;;;;;;4954242;28;20502;-48
2021/07/13 00:39:56;;;;;;;6.90;3.00;;;26.40;58.80;;;;;;4947588;28;20459;-48
2021/07/13 00:42:22;;;;;;;2.90;2.10;;;26.30;58.80;;;;;;4951846;28;20466;-49
2021/07/13 00:44:47;;;;;;;3.03;2.73;;;26.30;59.00;;;;;;4949053;28;20220;-52
2021/07/13 00:47:20;;;;;;;2.83;2.20;;;26.10;59.30;;;;;;4950853;28;20670;-51
2021/07/13 00:49:46;;;;;;;2.50;2.30;;;26.10;59.40;;;;;;4951065;28;20563;-49
2021/07/13 00:52:12;;;;;;;5.00;2.57;;;25.90;59.80;;;;;;4951289;29;20459;-50
2021/07/13 00:54:41;;;;;;;3.50;2.37;;;25.80;60.00;;;;;;4946825;28;20448;-53
2021/07/13 00:57:11;;;;;;;2.30;1.90;;;25.80;59.90;;;;;;4950751;28;20188;-47
2021/07/13 00:59:38;;;;;;;3.60;2.20;;;25.70;59.30;;;;;;4948985;28;20466;-51
2021/07/13 01:02:08;;;;;;;2.33;2.17;;;25.50;59.70;;;;;;4949241;28;20451;-48
2021/07/13 01:04:36;;;;;;;2.17;2.00;;;25.60;59.80;;;;;;4946269;28;20854;-48
2021/07/13 01:07:07;;;;;;;2.13;1.93;;;25.50;60.00;;;;;;4943933;28;20448;-49
2021/07/13 01:09:51;;;;;;;2.40;2.07;;;25.40;60.40;;;;;;4951378;28;20467;-52
2021/07/13 01:12:38;;;;;;;3.03;1.83;;;25.50;60.50;;;;;;4952766;28;20463;-51
2021/07/13 01:15:07;;;;;;;2.93;2.30;;;25.60;59.70;;;;;;4946528;28;20535;-51
2021/07/13 01:17:37;;;;;;;3.43;1.97;;;25.80;59.60;;;;;;4950342;28;21297;-51
2021/07/13 01:20:05;;;;;;;2.53;2.40;;;25.80;59.50;;;;;;4950077;28;20482;-51
2021/07/13 01:22:38;;;;;;;2.77;2.00;;;25.70;59.70;;;;;;4941660;28;20561;-52
2021/07/13 01:25:14;;;;;;;2.73;2.30;;;25.70;59.70;;;;;;4952446;28;20451;-50
2021/07/13 01:27:48;;;;;;;3.97;2.20;;;25.90;59.30;;;;;;4946425;28;20479;-47
2021/07/13 01:30:16;;;;;;;5.43;2.13;;;25.90;59.00;;;;;;4948455;28;20455;-53
2021/07/13 01:32:45;;;;;;;3.83;2.10;;;26.10;59.00;;;;;;4938807;28;20463;-50
2021/07/13 01:35:16;;;;;;;2.03;1.93;;;26.10;58.60;;;;;;4947778;28;21299;-52
2021/07/13 01:37:47;;;;;;;2.43;2.23;;;26.20;58.30;;;;;;4946606;28;20447;-50
2021/07/13 01:40:13;;;;;;;4.70;2.23;;;26.20;58.30;;;;;;4950660;28;20491;-49
2021/07/13 01:42:41;;;;;;;2.43;2.23;;;26.10;58.20;;;;;;4952639;28;20973;-50
2021/07/13 01:45:08;;;;;;;3.30;2.00;;;26.30;58.20;;;;;;4951932;28;20229;-48
2021/07/13 01:47:36;;;;;;;2.53;2.33;;;26.40;57.90;;;;;;4948093;28;20479;-47
2021/07/13 01:50:02;;;;;;;3.63;2.20;;;26.60;57.50;;;;;;4947217;28;20831;-50
2021/07/13 01:52:30;;;;;;;2.10;1.90;;;26.60;57.40;;;;;;4943179;28;20452;-50
2021/07/13 01:54:56;;;;;;;2.40;2.17;;;26.80;57.00;;;;;;4946792;28;20447;-51
2021/07/13 01:57:27;;;;;;;2.30;2.20;;;26.90;56.60;;;;;;4948729;28;20527;-47
2021/07/13 01:59:53;;;;;;;2.47;2.27;;;27.00;56.70;;;;;;4943681;28;20446;-51
2021/07/13 02:02:20;;;;;;;2.27;2.00;;;26.90;56.90;;;;;;4946645;28;20499;-51
2021/07/13 02:04:48;;;;;;;3.13;2.40;;;26.80;57.10;;;;;;4948463;28;20863;-52
2021/07/13 02:07:14;;;;;;;3.10;2.00;;;26.80;57.60;;;;;;4950609;28;20454;-51
2021/07/13 02:09:43;;;;;;;3.40;2.60;;;26.70;58.00;;;;;;4947612;28;20444;-47
2021/07/13 02:12:09;;;;;;;2.27;2.10;;;26.60;58.60;;;;;;4934142;29;20535;-50
2021/07/13 02:14:35;;;;;;;3.00;2.70;;;26.50;59.00;;;;;;4952914;28;20431;-48
2021/07/13 02:17:00;;;;;;;4.13;3.03;;;26.30;59.80;;;;;;4947943;28;20526;-49
2021/07/13 02:19:27;;;;;;;5.67;2.70;;;26.20;60.20;;;;;;4950705;28;20231;-49
2021/07/13 02:21:54;;;;;;;2.90;2.50;;;25.90;61.50;;;;;;4949900;28;20200;-46
2021/07/13 02:24:20;;;;;;;3.10;2.70;;;25.80;62.10;;;;;;4952913;28;20443;-52
2021/07/13 02:27:03;;;;;;;2.90;2.40;;;25.90;62.50;;;;;;4948473;28;21009;-49
2021/07/13 02:29:50;;;;;;;4.13;2.80;;;25.80;62.70;;;;;;4950989;28;20226;-51
2021/07/13 02:32:34;;;;;;;5.57;3.33;;;25.60;63.40;;;;;;4950833;28;20981;-48
2021/07/13 02:35:04;;;;;;;3.30;2.27;;;25.50;64.00;;;;;;4950193;28;20450;-53
2021/07/13 02:37:31;;;;;;;5.80;3.10;;;25.20;64.80;;;;;;4952375;28;20448;-51
2021/07/13 02:39:57;;;;;;;5.40;2.70;;;24.80;66.20;;;;;;4950893;28;20857;-51
2021/07/13 02:42:24;;;;;;;2.53;2.30;;;24.60;67.20;;;;;;4950644;28;20455;-50
2021/07/13 02:44:54;;;;;;;3.60;2.00;;;24.30;67.60;;;;;;4947196;28;20455;-47
2021/07/13 02:47:20;;;;;;;3.83;2.27;;;24.30;68.10;;;;;;4946512;28;20447;-52
2021/07/13 02:49:48;;;;;;;6.03;2.27;;;24.30;68.20;;;;;;4944314;28;20443;-49
2021/07/13 02:52:27;;;;;;;4.20;2.10;;;24.40;67.80;;;;;;4947841;29;20471;-51
2021/07/13 02:54:58;;;;;;;2.80;1.90;;;24.50;67.60;;;;;;4949891;28;20828;-53
2021/07/13 02:57:26;;;;;;;3.67;1.90;;;24.50;67.50;;;;;;4948390;28;20522;-47
2021/07/13 02:59:53;;;;;;;2.80;2.07;;;24.60;67.00;;;;;;4949995;28;20466;-51
2021/07/13 03:02:21;;;;;;;2.93;2.00;;;24.80;66.70;;;;;;4948121;28;20483;-47
2021/07/13 03:04:49;;;;;;;4.30;2.60;;;24.80;66.20;;;;;;4948435;28;20482;-47
2021/07/13 03:07:16;;;;;;;3.30;2.00;;;25.00;65.50;;;;;;4935887;29;20947;-50
2021/07/13 03:09:43;;;;;;;4.10;2.20;;;25.10;65.00;;;;;;4950041;28;20479;-51
2021/07/13 03:12:10;;;;;;;4.10;2.17;;;25.20;64.80;;;;;;4951206;28;20471;-50
2021/07/13 03:14:44;;;;;;;2.20;1.80;;;25.20;64.20;;;;;;4945832;28;20440;-47
2021/07/13 03:17:12;;;;;;;2.23;1.77;;;25.30;63.90;;;;;;4947527;28;20956;-49
2021/07/13 03:19:38;;;;;;;4.63;2.03;;;25.40;63.20;;;;;;4950243;28;20443;-51
2021/07/13 03:22:07;;;;;;;3.20;2.00;;;25.60;63.00;;;;;;4940034;28;20448;-50
2021/07/13 03:24:36;;;;;;;5.27;1.80;;;25.50;62.70;;;;;;4945393;28;20463;-52
2021/07/13 03:27:03;;;;;;;2.93;1.73;;;25.60;62.70;;;;;;4945213;28;20443;-49
2021/07/13 03:29:30;;;;;;;3.20;1.60;;;25.60;62.90;;;;;;4950570;28;20863;-49
2021/07/13 03:31:57;;;;;;;5.30;2.13;;;25.60;62.70;;;;;;4946075;28;20451;-52
2021/07/13 03:34:26;;;;;;;2.23;1.93;;;25.60;62.20;;;;;;4956708;28;21009;-46
2021/07/13 03:36:52;;;;;;;2.70;1.60;;;25.60;62.00;;;;;;4954622;28;20469;-50
2021/07/13 03:39:18;;;;;;;5.53;1.97;;;25.60;62.30;;;;;;4957271;28;20447;-52
2021/07/13 03:41:46;;;;;;;2.93;1.93;;;25.70;61.80;;;;;;4951801;28;20505;-52
2021/07/13 03:44:14;;;;;;;2.60;1.80;;;25.70;61.40;;;;;;4954331;28;20447;-51
2021/07/13 03:46:39;;;;;;;1.63;1.53;;;25.70;61.30;;;;;;4956319;28;20800;-51
2021/07/13 03:49:06;;;;;;;4.00;1.73;;;25.80;61.20;;;;;;4956637;28;20495;-48
2021/07/13 03:51:45;;;;;;;2.37;1.40;;;25.90;61.00;;;;;;4953486;28;20199;-51
2021/07/13 03:54:14;;;;;;;6.37;1.70;;;25.90;60.90;;;;;;4953705;28;20451;-53
2021/07/13 03:56:40;;;;;;;2.70;2.00;;;25.90;60.60;;;;;;4955046;28;20443;-50
2021/07/13 03:59:07;;;;;;;2.27;2.07;;;25.90;60.60;;;;;;4958757;28;20895;-53
2021/07/13 04:01:33;;;;;;;2.73;1.50;;;26.00;60.40;;;;;;4955657;28;20625;-52
2021/07/13 04:04:00;;;;;;;2.50;1.37;;;26.00;60.00;;;;;;4952712;28;20451;-49
2021/07/13 04:06:26;;;;;;;2.80;1.60;;;26.10;59.80;;;;;;4957321;28;20447;-51
2021/07/13 04:08:52;;;;;;;2.17;1.50;;;26.10;59.70;;;;;;4950820;28;20585;-50
2021/07/13 04:11:18;;;;;;;1.50;1.40;;;26.00;60.00;;;;;;4956647;28;20546;-52
2021/07/13 04:13:44;;;;;;;2.43;1.70;;;26.00;59.80;;;;;;4951976;28;20207;-51
2021/07/13 04:16:09;;;;;;;3.50;1.80;;;26.10;59.70;;;;;;4953410;28;20443;-53
2021/07/13 04:18:35;;;;;;;1.87;1.50;;;26.10;59.70;;;;;;4952851;28;20231;-52
2021/07/13 04:21:00;;;;;;;1.90;1.80;;;26.10;59.70;;;;;;4951879;28;20195;-52
2021/07/13 04:23:26;;;;;;;2.23;1.67;;;26.00;59.70;;;;;;4955084;28;20200;-48
2021/07/13 04:25:52;;;;;;;4.00;1.90;;;26.10;59.60;;;;;;4957176;28;20655;-50
2021/07/13 04:28:18;;;;;;;2.60;1.60;;;26.10;59.60;;;;;;4958055;28;20607;-52
2021/07/13 04:30:44;;;;;;;2.03;1.60;;;26.10;59.50;;;;;;4957010;28;20442;-53
2021/07/13 04:33:09;;;;;;;1.57;1.47;;;26.10;59.40;;;;;;4954606;28;20200;-50
2021/07/13 04:35:35;;;;;;;2.23;1.67;;;26.20;59.20;;;;;;4951086;28;20230;-49
2021/07/13 04:38:00;;;;;;;3.00;1.73;;;26.30;59.20;;;;;;4957939;28;20279;-52
2021/07/13 04:40:26;;;;;;;2.40;1.60;;;26.30;59.10;;;;;;4956978;28;20628;-52
2021/07/13 04:42:52;;;;;;;5.50;1.60;;;26.30;59.00;;;;;;4953404;28;20200;-51
2021/07/13 04:45:18;;;;;;;1.63;1.50;;;26.30;59.00;;;;;;4950882;28;20287;-52
2021/07/13 04:47:44;;;;;;;4.93;1.30;;;26.30;59.00;;;;;;4951738;28;20948;-51
2021/07/13 04:50:10;;;;;;;2.80;1.90;;;26.30;59.00;;;;;;4953979;28;20219;-51
2021/07/13 04:52:36;;;;;;;2.03;1.60;;;26.30;59.20;;;;;;4947535;28;20200;-52
2021/07/13 04:55:02;;;;;;;1.70;1.60;;;26.40;59.10;;;;;;4952996;28;20886;-50
2021/07/13 04:57:28;;;;;;;2.63;1.50;;;26.40;58.80;;;;;;4949810;28;20197;-53
2021/07/13 04:59:54;;;;;;;5.07;2.00;;;26.40;58.60;;;;;;4953167;28;20535;-52
2021/07/13 05:02:21;;;;;;;1.97;1.87;;;26.40;58.60;;;;;;4953599;28;20478;-51
2021/07/13 05:04:46;;;;;;;2.63;1.60;;;26.40;58.80;;;;;;4951695;28;20853;-51
2021/07/13 05:07:12;;;;;;;4.77;1.47;;;26.40;58.70;;;;;;4952343;28;20482;-53
2021/07/13 05:09:38;;;;;;;1.90;1.80;;;26.50;58.90;;;;;;4951094;28;20668;-51
2021/07/13 05:12:04;;;;;;;3.30;1.93;;;26.50;58.70;;;;;;4947344;28;20275;-52
2021/07/13 05:14:30;;;;;;;3.90;1.70;;;26.50;58.80;;;;;;4944735;28;20196;-53
2021/07/13 05:16:55;;;;;;;5.10;1.87;;;26.50;58.90;;;;;;4951858;28;20522;-52
2021/07/13 05:19:21;;;;;;;3.50;2.10;;;26.50;59.10;;;;;;4952562;28;20566;-53
2021/07/13 05:21:56;;;;;;;6.47;2.13;;;26.50;59.00;;;;;;4942941;28;20203;-51
2021/07/13 05:24:23;;;;;;;2.90;1.47;;;26.40;59.10;;;;;;4950958;28;20630;-53
2021/07/13 05:26:49;;;;;;;4.10;1.93;;;26.40;59.00;;;;;;4948909;28;20435;-52
2021/07/13 05:29:15;;;;;;;2.77;2.30;;;26.50;59.00;;;;;;4949469;28;20904;-52
2021/07/13 05:31:41;;;;;;;1.83;1.47;;;26.50;59.10;;;;;;4949618;29;20586;-52
2021/07/13 05:34:07;;;;;;;3.03;1.70;;;26.50;59.10;;;;;;4948678;28;20188;-53
2021/07/13 05:36:33;;;;;;;5.67;2.03;;;26.60;58.90;;;;;;4952946;28;20432;-53
2021/07/13 05:39:00;;;;;;;2.57;1.57;;;26.60;58.90;;;;;;4954818;29;20784;-52
2021/07/13 05:41:26;;;;;;;3.90;1.70;;;26.70;58.90;;;;;;4953581;28;20204;-53
2021/07/13 05:43:53;;;;;;;2.43;1.80;;;26.70;58.60;;;;;;4950880;29;20435;-52
2021/07/13 05:46:19;;;;;;;3.30;2.33;;;26.80;58.60;;;;;;4947285;28;20189;-49
2021/07/13 05:48:45;;;;;;;4.00;2.40;;;26.80;58.90;;;;;;4952973;29;20518;-47
2021/07/13 05:51:11;;;;;;;2.33;2.13;;;26.80;58.80;;;;;;4949690;29;20309;-49
2021/07/13 05:53:36;;;;;;;3.53;1.60;;;26.70;59.10;;;;;;4953949;29;20439;-48
2021/07/13 05:56:02;;;;;;;2.33;2.13;;;26.70;59.20;;;;;;4947602;28;20295;-48
2021/07/13 05:58:28;;;;;;;3.23;2.80;;;26.60;59.40;;;;;;4951020;29;20656;-48
2021/07/13 06:00:54;;;;;;;2.40;2.20;;;26.60;59.40;;;;;;4946703;29;20228;-49
2021/07/13 06:03:19;;;;;;;2.63;2.23;;;26.60;59.30;;;;;;4944162;29;20522;-50
2021/07/13 06:05:45;;;;;;;2.43;1.87;;;26.60;59.40;;;;;;4952767;29;20192;-48
2021/07/13 06:08:12;;;;;;;3.20;2.50;;;26.50;59.40;;;;;;4954043;28;20219;-47
2021/07/13 06:10:37;;;;;;;3.23;2.70;;;26.40;59.40;;;;;;4948087;29;20199;-49
2021/07/13 06:13:03;;;;;;;3.13;2.30;;;26.30;59.30;;;;;;4950789;29;20444;-48
2021/07/13 06:15:29;;;;;;;4.57;2.37;;;26.20;59.80;;;;;;4953610;28;20227;-47
2021/07/13 06:17:56;;;;;;;2.70;2.17;;;26.20;60.10;;;;;;4952570;29;21239;-51
2021/07/13 06:20:21;;;;;;;3.37;2.30;;;26.10;60.60;;;;;;4950092;28;20196;-49
2021/07/13 06:22:47;;;;;;;3.70;2.30;;;25.80;61.30;;;;;;4952795;29;20439;-47
2021/07/13 06:25:13;;;;;;;2.17;1.97;;;25.70;61.50;;;;;;4946426;29;20196;-49
2021/07/13 06:27:39;;;;;;;2.63;2.40;;;25.70;61.70;;;;;;4946869;29;20220;-49
2021/07/13 06:30:07;;;;;;;3.10;2.90;;;25.80;61.90;;;;;;4953503;28;20195;-48
2021/07/13 06:32:33;;;;;;;3.10;2.80;;;25.80;61.90;;;;;;4953182;29;20444;-48
2021/07/13 06:34:59;;;;;;;2.97;2.03;;;25.80;61.90;;;;;;4951694;28;20434;-47
2021/07/13 06:37:24;;;;;;;3.43;1.93;;;25.70;62.00;;;;;;4954127;29;20195;-51
2021/07/13 06:39:50;;;;;;;3.03;2.40;;;25.80;61.90;;;;;;4953934;29;20192;-47
2021/07/13 06:42:16;;;;;;;2.50;2.30;;;25.90;61.50;;;;;;4952326;29;20206;-50
2021/07/13 06:44:42;;;;;;;6.10;2.53;;;26.00;61.30;;;;;;4947557;29;20199;-47
2021/07/13 06:47:07;;;;;;;3.60;2.50;;;26.10;61.10;;;;;;4932513;29;20724;-52
2021/07/13 06:49:33;;;;;;;5.00;2.20;;;26.20;61.20;;;;;;4953701;29;20675;-48
2021/07/13 06:51:59;;;;;;;3.13;2.83;;;26.20;61.40;;;;;;4949890;29;20227;-47
2021/07/13 06:54:24;;;;;;;4.07;2.50;;;26.20;61.20;;;;;;4946050;29;20257;-47
2021/07/13 06:56:50;;;;;;;4.83;2.80;;;26.30;61.20;;;;;;4953184;29;20250;-48
2021/07/13 06:59:16;;;;;;;3.80;3.50;;;26.30;61.10;;;;;;4953124;29;20258;-52
2021/07/13 07:01:41;;;;;;;4.63;2.63;;;26.10;62.00;;;;;;4943843;29;20628;-47
2021/07/13 07:04:07;;;;;;;4.07;3.47;;;26.10;61.70;;;;;;4954253;29;20196;-46
2021/07/13 07:06:32;;;;;;;5.33;3.13;;;26.00;61.80;;;;;;4951896;28;20580;-48
2021/07/13 07:08:58;;;;;;;2.10;1.83;;;26.00;62.00;;;;;;4951784;29;20767;-48
2021/07/13 07:11:24;;;;;;;3.20;2.90;;;26.00;61.80;;;;;;4952010;28;20200;-50
2021/07/13 07:13:50;;;;;;;6.73;3.00;;;26.00;61.40;;;;;;4951410;28;20219;-47
2021/07/13 07:16:15;;;;;;;3.00;2.70;;;26.10;61.40;;;;;;4947959;29;20204;-50
2021/07/13 07:18:41;;;;;;;3.20;2.90;;;26.10;61.40;;;;;;4942432;28;20254;-51
2021/07/13 07:21:06;;;;;;;3.50;2.83;;;26.10;61.30;;;;;;4947521;29;20234;-52
2021/07/13 07:23:33;;;;;;;2.30;2.10;;;26.10;61.00;;;;;;4951859;29;20204;-48
2021/07/13 07:25:59;;;;;;;2.63;2.37;;;26.10;60.50;;;;;;4948525;29;20200;-50
2021/07/13 07:28:25;;;;;;;3.07;2.73;;;26.10;60.40;;;;;;4951652;29;20494;-51
2021/07/13 07:30:51;;;;;;;2.87;2.67;;;26.20;60.10;;;;;;4949829;29;20851;-49
2021/07/13 07:33:17;;;;;;;4.30;2.93;;;26.30;59.90;;;;;;4945928;28;20327;-47
2021/07/13 07:35:43;;;;;;;3.10;2.87;;;26.30;59.80;;;;;;4949993;29;20236;-52
2021/07/13 07:38:10;;;;;;;5.60;3.50;;;26.30;60.50;;;;;;4946299;28;20749;-50
2021/07/13 07:40:36;;;;;;;4.40;3.70;;;26.40;61.50;;;;;;4951581;28;20962;-48
2021/07/13 07:43:02;;;;;;;3.70;2.90;;;26.30;61.70;;;;;;4950513;28;20443;-49
2021/07/13 07:45:28;;;;;;;4.33;3.70;;;26.30;61.40;;;;;;4951253;29;20440;-47
2021/07/13 07:47:53;;;;;;;6.43;3.97;;;26.30;61.20;;;;;;4945775;29;20290;-49
2021/07/13 07:50:20;;;;;;;5.23;3.27;;;26.30;60.60;;;;;;4947187;28;20566;-49
2021/07/13 07:52:46;;;;;;;3.67;2.97;;;26.30;60.50;;;;;;4944953;28;20322;-48
2021/07/13 07:55:13;;;;;;;6.20;3.47;;;26.30;60.30;;;;;;4951261;29;20550;-49
2021/07/13 07:57:39;;;;;;;3.63;3.10;;;26.40;60.40;;;;;;4951973;29;20660;-49
2021/07/13 08:00:07;;;;;;;3.03;2.57;;;26.40;60.10;;;;;;4950171;29;20574;-48
2021/07/13 08:02:33;;;;;;;3.07;2.77;;;26.40;60.30;;;;;;4951000;29;20210;-51
2021/07/13 08:05:00;;;;;;;3.90;3.50;;;26.40;60.30;;;;;;4950104;29;20440;-52
2021/07/13 08:07:26;;;;;;;3.83;3.43;;;26.40;60.20;;;;;;4951286;29;20196;-49
2021/07/13 08:09:52;;;;;;;5.93;4.60;;;26.50;60.70;;;;;;4951206;29;20534;-53
2021/07/13 08:12:18;;;;;;;5.00;3.80;;;26.50;60.80;;;;;;4941468;28;20526;-53
2021/07/13 08:14:43;;;;;;;5.20;4.00;;;26.40;62.00;;;;;;4950247;29;20251;-47
2021/07/13 08:17:09;;;;;;;5.60;3.20;;;26.40;62.50;;;;;;4943935;28;20236;-48
2021/07/13 08:19:38;;;;;;;3.90;3.60;;;26.30;62.70;;;;;;4950803;29;20215;-52
2021/07/13 08:22:08;;;;;;;5.57;3.33;;;26.30;62.90;;;;;;4951123;29;20547;-48
2021/07/13 08:24:38;;;;;;;3.47;3.17;;;26.20;63.00;;;;;;4950836;28;20439;-51
2021/07/13 08:27:08;;;;;;;3.37;3.17;;;26.20;63.70;;;;;;4955015;28;20439;-51
2021/07/13 08:29:34;;;;;;;3.97;2.97;;;26.10;64.40;;;;;;4950961;28;20506;-46
2021/07/13 08:32:00;;;;;;;2.90;2.70;;;26.10;64.60;;;;;;4945085;28;20923;-47
2021/07/13 08:34:26;;;;;;;3.43;2.80;;;26.00;64.30;;;;;;4952465;28;20255;-46
2021/07/13 08:36:52;;;;;;;2.27;2.07;;;25.90;64.40;;;;;;4952705;28;20283;-51
2021/07/13 08:39:18;;;;;;;6.70;3.13;;;25.90;64.40;;;;;;4955439;29;20447;-51
2021/07/13 08:41:45;;;;;;;2.90;2.67;;;25.80;64.80;;;;;;4951863;29;20951;-47
2021/07/13 08:44:11;;;;;;;4.10;2.97;;;25.80;64.90;;;;;;4945752;29;20275;-52
2021/07/13 08:46:43;;;;;;;4.80;3.30;;;25.70;65.00;;;;;;4945974;29;20523;-52
2021/07/13 08:49:11;;;;;;;2.80;2.50;;;25.70;65.40;;;;;;4953111;28;20253;-53
2021/07/13 08:51:38;;;;;;;5.20;3.10;;;25.60;65.60;;;;;;4954755;28;20440;-51
2021/07/13 08:54:04;;;;;;;5.17;3.00;;;25.50;65.80;;;;;;4950993;29;20437;-51
2021/07/13 08:56:35;;;;;;;2.90;2.70;;;25.50;66.20;;;;;;4952657;29;20454;-52
2021/07/13 08:59:01;;;;;;;2.80;2.60;;;25.50;66.10;;;;;;4952033;29;20530;-51
2021/07/13 09:01:27;;;;;;;5.00;3.07;;;25.50;66.20;;;;;;4953148;29;20514;-52
2021/07/13 09:03:58;;;;;;;3.10;2.53;;;25.40;66.40;;;;;;4945706;29;20519;-47
2021/07/13 09:06:25;;;;;;;7.10;2.90;;;25.40;66.50;;;;;;4949006;28;20207;-53
2021/07/13 09:08:51;;;;;;;3.43;2.87;;;25.40;66.40;;;;;;4951145;29;20573;-48
2021/07/13 09:11:23;;;;;;;2.97;2.77;;;25.40;66.50;;;;;;4943054;28;20516;-51
2021/07/13 09:13:48;;;;;;;6.53;3.10;;;25.40;66.40;;;;;;4949576;29;20563;-48
2021/07/13 09:16:18;;;;;;;4.03;3.60;;;25.40;66.70;;;;;;4954010;29;20448;-49
2021/07/13 09:18:52;;;;;;;4.17;3.53;;;25.30;66.70;;;;;;4947874;28;20227;-51
2021/07/13 09:21:21;;;;;;;3.27;2.60;;;25.30;66.80;;;;;;4952314;28;20543;-51
2021/07/13 09:24:21;;;;;;;1.77;1.63;;;25.30;67.00;;;;;;4952151;28;20471;-51
2021/07/13 09:26:49;;;;;;;2.03;1.93;;;25.00;65.80;;;;;;4953004;29;20794;-52
2021/07/13 09:29:39;;;;;;;1.47;1.37;;;24.60;66.50;;;;;;4948196;28;20503;-47
2021/07/13 09:32:31;;;;;;;1.30;1.20;;;24.40;66.70;;;;;;4945796;29;20460;-47
2021/07/13 09:35:04;;;;;;;4.20;1.00;;;24.40;66.60;;;;;;4952895;29;20959;-51
2021/07/13 09:37:32;;;;;;;1.20;0.80;;;24.40;66.20;;;;;;4949207;29;20593;-48
2021/07/13 09:40:04;;;;;;;0.90;0.70;;;24.30;66.90;;;;;;4946499;29;20444;-49
2021/07/13 09:42:31;;;;;;;1.60;0.87;;;24.10;66.80;;;;;;4952662;29;21416;-47
2021/07/13 09:45:19;;;;;;;0.70;0.60;;;24.10;66.90;;;;;;4952921;29;20427;-49
2021/07/13 09:47:45;;;;;;;0.87;0.87;;;24.10;66.90;;;;;;4937848;29;20454;-49
2021/07/13 09:50:12;;;;;;;0.70;0.70;;;24.00;66.40;;;;;;4942428;29;20431;-51
2021/07/13 09:52:38;;;;;;;1.60;0.67;;;23.70;67.50;;;;;;4950710;29;20447;-48
2021/07/13 09:55:17;;;;;;;0.60;0.60;;;23.40;68.10;;;;;;4952007;28;20446;-53
2021/07/13 09:57:43;;;;;;;0.60;0.60;;;23.40;68.50;;;;;;4958023;28;20613;-48
2021/07/13 10:00:10;;;;;;;1.33;0.60;;;23.50;68.10;;;;;;4947443;29;20431;-48
2021/07/13 10:02:35;;;;;;;0.60;0.57;;;23.20;68.40;;;;;;4957391;28;20443;-51
2021/07/13 10:05:03;;;;;;;0.87;0.50;;;23.10;68.90;;;;;;4939601;29;20844;-52
2021/07/13 10:07:30;;;;;;;0.80;0.80;;;22.90;70.00;;;;;;4950243;28;20283;-51
2021/07/13 10:10:00;;;;;;;1.23;0.70;;;23.00;69.90;;;;;;4962105;28;20446;-49
2021/07/13 10:12:26;;;;;;;1.23;0.80;;;22.90;69.10;;;;;;4952835;28;20815;-47
2021/07/13 10:14:55;;;;;;;0.80;0.80;;;23.00;69.40;;;;;;4952873;28;20436;-49
2021/07/13 10:17:23;;;;;;;2.60;1.00;;;22.60;69.70;;;;;;4945886;28;20472;-50
2021/07/13 10:19:58;;;;;;;1.87;1.67;;;22.60;71.00;;;;;;4951847;29;20439;-51
2021/07/13 10:22:26;;;;;;;1.37;0.90;;;22.60;70.90;;;;;;4954021;29;20431;-51
2021/07/13 10:24:56;;;;;;;0.70;0.70;;;22.70;71.30;;;;;;4957224;28;20454;-52
2021/07/13 10:27:36;;;;;;;1.03;0.80;;;22.90;70.60;;;;;;4950867;28;20448;-52
2021/07/13 10:30:09;;;;;;;2.30;1.20;;;23.00;70.50;;;;;;4952774;28;21249;-50
2021/07/13 10:32:42;;;;;;;5.07;1.00;;;23.30;69.80;;;;;;4968605;28;20453;-49
2021/07/13 10:35:17;;;;;;;1.60;0.83;;;23.40;70.10;;;;;;4952278;29;20462;-52
2021/07/13 10:37:46;;;;;;;1.17;0.83;;;23.50;68.40;;;;;;4953187;29;20459;-49
2021/07/13 10:40:33;;;;;;;0.87;0.77;;;23.60;67.90;;;;;;4953298;28;20431;-52
2021/07/13 10:43:03;;;;;;;0.67;0.67;;;23.60;66.80;;;;;;4936311;29;20431;-48
2021/07/13 10:45:39;;;;;;;0.83;0.73;;;23.70;66.40;;;;;;4941345;29;20471;-50
2021/07/13 10:48:22;;;;;;;0.70;0.67;;;23.50;66.10;;;;;;4953618;29;20519;-50
2021/07/13 10:50:47;;;;;;;0.70;0.70;;;23.50;65.80;;;;;;4953050;28;20439;-52
2021/07/13 10:53:13;;;;;;;2.70;0.80;;;23.10;64.50;;;;;;4954143;29;21255;-48
2021/07/13 10:55:46;;;;;;;2.00;0.90;;;23.00;66.20;;;;;;4951989;28;20266;-47
2021/07/13 10:58:21;;;;;;;0.70;0.60;;;23.10;66.10;;;;;;4942910;29;20204;-52
2021/07/13 11:00:50;;;;;;;0.90;0.67;;;23.20;65.90;;;;;;4933529;29;20787;-51
2021/07/13 11:03:38;;;;;;;1.77;1.10;;;23.20;64.80;;;;;;4933094;29;20444;-50
2021/07/13 11:06:12;;;;;;;1.33;0.77;;;23.20;65.10;;;;;;4935697;29;20546;-47
2021/07/13 11:08:59;;;;;;;2.93;0.63;;;23.30;64.90;;;;;;4949510;29;20554;-51
2021/07/13 11:11:28;;;;;;;2.30;0.97;;;23.30;65.00;;;;;;4933430;29;20955;-46
2021/07/13 11:13:59;;;;;;;0.80;0.70;;;23.40;65.00;;;;;;4934682;29;20468;-50
2021/07/13 11:16:30;;;;;;;1.73;0.87;;;23.30;64.30;;;;;;4933784;29;20445;-50
2021/07/13 11:18:58;;;;;;;1.67;0.70;;;23.20;64.90;;;;;;4943956;29;20975;-50
2021/07/13 11:21:26;;;;;;;2.10;0.87;;;23.10;65.00;;;;;;4952319;29;20420;-48
2021/07/13 11:23:53;;;;;;;1.00;0.60;;;23.10;66.20;;;;;;4953597;29;20431;-50
2021/07/13 11:26:21;;;;;;;1.50;0.70;;;23.10;66.00;;;;;;4952774;29;20481;-48
2021/07/13 11:29:00;;;;;;;1.73;0.70;;;23.10;66.00;;;;;;4952510;28;20561;-49
2021/07/13 11:31:29;;;;;;;0.90;0.80;;;23.10;65.80;;;;;;4933703;29;21030;-51
2021/07/13 11:34:17;;;;;;;1.43;0.60;;;23.00;65.10;;;;;;4948810;28;20454;-49
2021/07/13 11:36:45;;;;;;;0.80;0.60;;;23.00;66.70;;;;;;4951990;28;20444;-52
2021/07/13 11:39:20;;;;;;;0.70;0.60;;;23.10;64.90;;;;;;4949436;29;20487;-51
2021/07/13 11:41:46;;;;;;;1.17;0.50;;;23.20;64.90;;;;;;4947080;28;20449;-49
2021/07/13 11:44:12;;;;;;;0.50;0.50;;;23.20;63.80;;;;;;4960640;28;20438;-50
2021/07/13 11:46:43;;;;;;;1.43;0.70;;;23.20;63.80;;;;;;4967010;28;20207;-51
2021/07/13 11:49:20;;;;;;;1.00;0.70;;;23.20;63.00;;;;;;4957848;28;20495;-52
2021/07/13 11:51:56;;;;;;;1.50;0.80;;;23.30;63.20;;;;;;4957693;28;20478;-50
2021/07/13 11:54:25;;;;;;;0.93;0.60;;;23.50;63.20;;;;;;4952510;28;20905;-50
2021/07/13 11:56:54;;;;;;;0.73;0.63;;;23.40;62.30;;;;;;4965170;28;20938;-52
2021/07/13 11:59:25;;;;;;;0.50;0.50;;;23.40;63.00;;;;;;4966842;28;20443;-50
2021/07/13 12:01:54;;;;;;;3.60;0.97;;;23.30;62.70;;;;;;4951011;29;20840;-50
2021/07/13 12:04:22;;;;;;;0.50;0.50;;;23.20;63.00;;;;;;4955238;28;20490;-52
2021/07/13 12:06:53;;;;;;;0.60;0.60;;;23.20;63.10;;;;;;4949567;28;20530;-50
2021/07/13 12:09:27;;;;;;;1.77;0.90;;;23.20;63.20;;;;;;4954148;29;20486;-48
2021/07/13 12:11:55;;;;;;;1.07;0.80;;;23.10;63.20;;;;;;4953241;29;20501;-50
2021/07/13 12:14:23;;;;;;;0.80;0.70;;;23.20;63.00;;;;;;4954787;28;20443;-51
2021/07/13 12:16:49;;;;;;;4.20;0.83;;;23.30;63.60;;;;;;4952504;29;20441;-51
2021/07/13 12:19:19;;;;;;;1.67;0.70;;;23.40;63.20;;;;;;4953505;28;20439;-51
2021/07/13 12:21:56;;;;;;;1.03;0.70;;;23.40;63.00;;;;;;4951963;28;20239;-47
2021/07/13 12:24:24;;;;;;;1.73;0.70;;;23.20;62.10;;;;;;4965262;28;20957;-51
2021/07/13 12:26:55;;;;;;;0.70;0.70;;;23.30;62.30;;;;;;4959682;28;20428;-51
2021/07/13 12:29:42;;;;;;;1.23;0.87;;;23.40;61.80;;;;;;4951935;28;20509;-48
2021/07/13 12:32:16;;;;;;;0.87;0.63;;;23.30;61.50;;;;;;4944815;29;20442;-48
2021/07/13 12:34:42;;;;;;;1.63;0.70;;;23.10;62.00;;;;;;4949670;29;20435;-48
2021/07/13 12:37:12;;;;;;;0.90;0.70;;;23.20;61.80;;;;;;4955130;28;20444;-50
2021/07/13 12:39:44;;;;;;;0.60;0.60;;;23.30;62.20;;;;;;4956004;28;20507;-47
2021/07/13 12:42:16;;;;;;;1.20;0.90;;;23.50;62.20;;;;;;4955115;29;20519;-47
2021/07/13 12:44:51;;;;;;;1.53;0.70;;;23.30;61.30;;;;;;4948676;29;20759;-50
2021/07/13 12:47:32;;;;;;;0.90;0.67;;;23.10;61.30;;;;;;4954896;28;20525;-48
2021/07/13 12:50:04;;;;;;;1.37;0.83;;;23.10;62.00;;;;;;4954521;29;20506;-47
2021/07/13 12:52:44;;;;;;;0.70;0.70;;;23.10;61.40;;;;;;4953493;28;20450;-52
2021/07/13 12:55:31;;;;;;;0.90;0.90;;;23.20;61.70;;;;;;4955848;28;20436;-48